createdAt,value
2023-04-14T00:00:49.264Z,5.53
2023-04-14T00:03:18.372Z,5.13
2023-04-14T00:05:46.229Z,5.95
2023-04-14T00:08:13.333Z,5.88
2023-04-14T00:10:40.813Z,5.97
2023-04-14T00:13:07.982Z,5.82
2023-04-14T00:15:35.298Z,5.78
2023-04-14T00:18:02.569Z,5.63
2023-04-14T00:20:29.676Z,6.07
2023-04-14T00:22:57.034Z,5.63
2023-04-14T00:25:26.794Z,6.00
2023-04-14T00:27:54.612Z,5.82
2023-04-14T00:30:21.824Z,5.35
2023-04-14T00:32:49.008Z,6.07
2023-04-14T00:35:16.350Z,5.45
2023-04-14T00:37:43.426Z,6.00
2023-04-14T00:40:11.188Z,5.40
2023-04-14T00:42:46.982Z,5.68
2023-04-14T00:45:15.097Z,6.22
2023-04-14T00:47:50.461Z,6.30
2023-04-14T00:50:20.971Z,6.50
2023-04-14T00:52:51.359Z,6.47
2023-04-14T00:55:22.238Z,5.82
2023-04-14T00:57:50.396Z,5.88
2023-04-14T01:00:18.168Z,6.10
2023-04-14T01:02:45.678Z,6.38
2023-04-14T01:05:18.062Z,6.03
2023-04-14T01:07:48.568Z,5.75
2023-04-14T01:10:18.166Z,6.20
2023-04-14T01:13:16.687Z,6.10
2023-04-14T01:16:00.823Z,6.00
2023-04-14T01:18:58.006Z,6.15
2023-04-14T01:21:36.118Z,6.07
2023-04-14T01:24:38.122Z,6.03
2023-04-14T01:27:41.273Z,5.20
2023-04-14T01:31:02.854Z,5.60
2023-04-14T01:33:36.020Z,5.68
2023-04-14T01:36:13.925Z,5.85
2023-04-14T01:38:43.947Z,5.82
2023-04-14T01:41:16.918Z,5.97
2023-04-14T01:43:50.282Z,5.93
2023-04-14T01:46:19.866Z,5.82
2023-04-14T01:48:49.742Z,6.45
2023-04-14T01:51:22.255Z,6.07
2023-04-14T01:53:55.195Z,6.45
2023-04-14T01:56:24.174Z,6.45
2023-04-14T01:58:55.552Z,6.93
2023-04-14T02:01:26.291Z,6.15
2023-04-14T02:03:56.072Z,6.43
2023-04-14T02:06:25.140Z,5.95
2023-04-14T02:09:10.439Z,5.93
2023-04-14T02:11:40.588Z,6.03
2023-04-14T02:14:10.690Z,5.28
2023-04-14T02:16:39.712Z,5.32
2023-04-14T02:19:07.644Z,5.55
2023-04-14T02:21:35.921Z,6.80
2023-04-14T02:24:03.991Z,5.28
2023-04-14T02:26:41.111Z,6.07
2023-04-14T02:29:14.602Z,6.10
2023-04-14T02:31:55.044Z,5.43
2023-04-14T02:34:34.100Z,5.95
2023-04-14T02:37:18.767Z,5.40
2023-04-14T02:39:59.226Z,5.28
2023-04-14T02:42:30.337Z,5.18
2023-04-14T02:45:06.429Z,5.25
2023-04-14T02:47:41.761Z,5.72
2023-04-14T02:50:15.813Z,5.30
2023-04-14T02:52:53.792Z,6.07
2023-04-14T02:55:25.407Z,6.00
2023-04-14T02:57:55.868Z,5.35
2023-04-14T03:00:24.345Z,5.90
2023-04-14T03:03:01.919Z,5.65
2023-04-14T03:05:32.832Z,5.35
2023-04-14T03:08:12.538Z,5.43
2023-04-14T03:10:48.061Z,4.93
2023-04-14T03:13:20.388Z,5.30
2023-04-14T03:15:51.923Z,5.10
2023-04-14T03:18:21.798Z,5.47
2023-04-14T03:20:53.401Z,5.07
2023-04-14T03:23:24.408Z,5.68
2023-04-14T03:25:58.274Z,5.15
2023-04-14T03:28:34.089Z,5.65
2023-04-14T03:31:06.368Z,5.63
2023-04-14T03:33:46.117Z,5.10
2023-04-14T03:36:18.006Z,5.05
2023-04-14T03:38:49.921Z,4.93
2023-04-14T03:41:21.346Z,5.65
2023-04-14T03:43:57.058Z,5.57
2023-04-14T03:46:24.846Z,5.60
2023-04-14T03:48:58.838Z,5.57
2023-04-14T03:51:32.189Z,5.95
2023-04-14T03:54:02.695Z,5.63
2023-04-14T03:56:38.074Z,5.88
2023-04-14T03:59:09.928Z,5.80
2023-04-14T04:01:41.300Z,6.40
2023-04-14T04:04:10.475Z,6.72
2023-04-14T04:06:40.849Z,6.70
2023-04-14T04:09:14.802Z,6.10
2023-04-14T04:11:46.802Z,6.45
2023-04-14T04:14:17.860Z,6.22
2023-04-14T04:16:50.211Z,5.43
2023-04-14T04:19:25.665Z,5.70
2023-04-14T04:21:57.465Z,5.75
2023-04-14T04:24:32.773Z,5.40
2023-04-14T04:27:01.337Z,5.55
2023-04-14T04:29:29.699Z,5.47
2023-04-14T04:31:57.022Z,5.75
2023-04-14T04:34:27.059Z,5.63
2023-04-14T04:36:56.707Z,6.70
2023-04-14T04:39:26.212Z,5.70
2023-04-14T04:42:07.035Z,6.75
2023-04-14T04:44:35.252Z,6.57
2023-04-14T04:47:03.265Z,7.13
2023-04-14T04:49:30.443Z,6.70
2023-04-14T04:52:02.513Z,8.00
2023-04-14T04:54:29.817Z,6.60
2023-04-14T04:56:58.851Z,8.27
2023-04-14T04:59:26.213Z,8.70
2023-04-14T05:01:53.438Z,8.90
2023-04-14T05:04:21.476Z,8.27
2023-04-14T05:06:48.744Z,8.10
2023-04-14T05:09:15.935Z,7.78
2023-04-14T05:11:43.648Z,6.90
2023-04-14T05:14:10.829Z,7.90
2023-04-14T05:16:38.110Z,7.18
2023-04-14T05:19:05.224Z,8.27
2023-04-14T05:21:32.880Z,7.85
2023-04-14T05:24:00.565Z,8.10
2023-04-14T05:26:48.758Z,8.57
2023-04-14T05:29:14.830Z,8.30
2023-04-14T05:31:42.133Z,8.35
2023-04-14T05:34:11.374Z,8.15
2023-04-14T05:36:38.578Z,6.93
2023-04-14T05:39:05.930Z,5.60
2023-04-14T05:41:33.173Z,4.50
2023-04-14T05:44:00.900Z,3.90
2023-04-14T05:46:28.505Z,4.53
2023-04-14T05:48:56.826Z,3.90
2023-04-14T05:51:23.964Z,3.40
2023-04-14T05:53:51.401Z,3.70
2023-04-14T05:56:18.880Z,3.50
2023-04-14T05:58:46.112Z,3.70
2023-04-14T06:01:13.177Z,3.38
2023-04-14T06:03:40.916Z,3.30
2023-04-14T06:06:08.803Z,3.58
2023-04-14T06:08:36.048Z,3.83
2023-04-14T06:11:03.961Z,3.78
2023-04-14T06:13:33.563Z,3.95
2023-04-14T06:16:03.115Z,3.47
2023-04-14T06:18:30.991Z,3.15
2023-04-14T06:20:58.828Z,3.42
2023-04-14T06:23:26.770Z,3.25
2023-04-14T06:25:54.977Z,3.22
2023-04-14T06:28:24.029Z,2.97
2023-04-14T06:30:51.602Z,2.50
2023-04-14T06:33:18.918Z,2.80
2023-04-14T06:35:46.091Z,2.83
2023-04-14T06:38:13.317Z,2.75
2023-04-14T06:40:40.539Z,2.80
2023-04-14T06:43:11.685Z,2.30
2023-04-14T06:45:39.257Z,2.08
2023-04-14T06:48:07.812Z,2.40
2023-04-14T06:50:35.057Z,2.58
2023-04-14T06:53:02.321Z,2.97
2023-04-14T06:55:29.576Z,2.58
2023-04-14T06:57:56.778Z,2.60
2023-04-14T07:00:24.146Z,2.78
2023-04-14T07:02:51.488Z,3.05
2023-04-14T07:05:19.770Z,2.72
2023-04-14T07:07:47.417Z,3.15
2023-04-14T07:10:18.836Z,2.40
2023-04-14T07:12:46.275Z,2.50
2023-04-14T07:15:14.423Z,1.95
2023-04-14T07:17:41.792Z,2.80
2023-04-14T07:20:10.177Z,2.58
2023-04-14T07:22:37.331Z,2.60
2023-04-14T07:25:04.956Z,2.38
2023-04-14T07:27:32.959Z,2.58
2023-04-14T07:30:00.239Z,2.53
2023-04-14T07:32:27.993Z,2.38
2023-04-14T07:34:56.286Z,2.42
2023-04-14T07:37:24.403Z,2.47
2023-04-14T07:39:52.010Z,2.50
2023-04-14T07:42:19.248Z,2.58
2023-04-14T07:44:46.417Z,2.40
2023-04-14T07:47:13.686Z,2.40
2023-04-14T07:49:40.894Z,2.45
2023-04-14T07:52:08.126Z,2.50
2023-04-14T07:54:35.623Z,2.45
2023-04-14T07:57:02.957Z,3.10
2023-04-14T07:59:31.832Z,2.47
2023-04-14T08:01:59.206Z,2.40
2023-04-14T08:04:27.075Z,2.97
2023-04-14T08:06:54.292Z,2.60
2023-04-14T08:09:21.516Z,2.40
2023-04-14T08:11:49.856Z,2.92
2023-04-14T08:14:17.035Z,2.60
2023-04-14T08:16:47.741Z,2.50
2023-04-14T08:19:15.897Z,2.47
2023-04-14T08:21:43.272Z,2.60
2023-04-14T08:24:10.522Z,2.45
2023-04-14T08:26:38.693Z,2.50
2023-04-14T08:29:06.514Z,2.10
2023-04-14T08:31:34.575Z,3.20
2023-04-14T08:34:02.058Z,2.30
2023-04-14T08:36:29.745Z,2.70
2023-04-14T08:39:00.633Z,2.80
2023-04-14T08:41:33.567Z,2.28
2023-04-14T08:44:01.639Z,2.80
2023-04-14T08:46:32.143Z,2.30
2023-04-14T08:49:12.593Z,2.40
2023-04-14T08:51:43.889Z,2.70
2023-04-14T08:54:12.837Z,2.63
2023-04-14T08:56:43.047Z,2.40
2023-04-14T08:59:11.888Z,2.58
2023-04-14T09:01:40.211Z,2.38
2023-04-14T09:04:09.122Z,2.47
2023-04-14T09:06:37.293Z,2.30
2023-04-14T09:09:10.813Z,2.72
2023-04-14T09:11:38.959Z,2.72
2023-04-14T09:14:06.914Z,2.15
2023-04-14T09:16:34.416Z,2.17
2023-04-14T09:19:06.959Z,2.17
2023-04-14T09:21:52.535Z,2.35
2023-04-14T09:24:30.980Z,2.05
2023-04-14T09:27:06.901Z,2.10
2023-04-14T09:29:36.557Z,1.80
2023-04-14T09:32:06.660Z,2.00
2023-04-14T09:34:34.166Z,2.13
2023-04-14T09:37:06.219Z,2.28
2023-04-14T09:39:47.595Z,2.00
2023-04-14T09:42:14.823Z,1.83
2023-04-14T09:44:59.170Z,2.20
2023-04-14T09:47:27.018Z,2.00
2023-04-14T09:50:03.211Z,2.20
2023-04-14T09:52:44.961Z,2.33
2023-04-14T09:55:16.226Z,1.80
2023-04-14T09:57:47.719Z,2.10
2023-04-14T10:00:22.566Z,1.90
2023-04-14T10:02:58.410Z,2.05
2023-04-14T10:05:34.394Z,1.90
2023-04-14T10:08:05.976Z,2.35
2023-04-14T10:10:33.323Z,2.65
2023-04-14T10:13:01.235Z,2.25
2023-04-14T10:15:28.625Z,2.30
2023-04-14T10:17:56.637Z,2.25
2023-04-14T10:20:25.128Z,2.35
2023-04-14T10:22:54.839Z,2.20
2023-04-14T10:25:29.423Z,2.10
2023-04-14T10:27:57.440Z,2.00
2023-04-14T10:30:24.946Z,2.30
2023-04-14T10:32:53.416Z,2.08
2023-04-14T10:35:21.290Z,2.50
2023-04-14T10:37:52.717Z,2.15
2023-04-14T10:40:21.630Z,2.10
2023-04-14T10:42:57.250Z,2.20
2023-04-14T10:45:24.564Z,1.90
2023-04-14T10:47:51.913Z,1.88
2023-04-14T10:50:24.995Z,1.83
2023-04-14T10:52:56.761Z,1.90
2023-04-14T10:55:27.896Z,2.45
2023-04-14T10:58:08.963Z,1.85
2023-04-14T11:01:05.146Z,2.20
2023-04-14T11:03:32.751Z,2.15
2023-04-14T11:06:00.530Z,2.05
2023-04-14T11:08:36.145Z,2.00
2023-04-14T11:11:06.909Z,1.83
2023-04-14T11:13:35.720Z,2.00
2023-04-14T11:16:09.378Z,1.83
2023-04-14T11:18:58.618Z,2.08
2023-04-14T11:21:26.321Z,2.13
2023-04-14T11:23:53.488Z,1.80
2023-04-14T11:26:24.540Z,1.63
2023-04-14T11:28:53.515Z,1.80
2023-04-14T11:31:23.019Z,2.00
2023-04-14T11:33:50.883Z,1.90
2023-04-14T11:36:18.192Z,1.70
2023-04-14T11:38:46.097Z,1.67
2023-04-14T11:41:16.347Z,2.00
2023-04-14T11:43:46.793Z,1.73
2023-04-14T11:46:16.247Z,1.70
2023-04-14T11:48:44.157Z,1.63
2023-04-14T11:51:11.340Z,1.98
2023-04-14T11:53:40.568Z,1.85
2023-04-14T11:56:12.811Z,1.60
2023-04-14T11:58:40.735Z,1.73
2023-04-14T12:01:08.910Z,1.50
2023-04-14T12:03:37.306Z,1.95
2023-04-14T12:06:05.747Z,2.00
2023-04-14T12:08:33.951Z,1.92
2023-04-14T12:11:17.584Z,1.67
2023-04-14T12:13:49.870Z,1.50
2023-04-14T12:16:18.309Z,1.80
2023-04-14T12:18:46.530Z,1.42
2023-04-14T12:21:20.004Z,1.60
2023-04-14T12:23:49.287Z,1.42
2023-04-14T12:26:19.836Z,1.42
2023-04-14T12:28:57.755Z,1.38
2023-04-14T12:31:31.412Z,1.40
2023-04-14T12:34:03.719Z,1.38
2023-04-14T12:36:49.639Z,1.60
2023-04-14T12:39:18.473Z,1.50
2023-04-14T12:41:45.861Z,1.60
2023-04-14T12:44:21.700Z,1.88
2023-04-14T12:46:52.606Z,1.80
2023-04-14T12:49:37.955Z,1.73
2023-04-14T12:52:08.151Z,1.83
2023-04-14T12:54:53.941Z,1.58
2023-04-14T12:57:22.499Z,1.48
2023-04-14T12:59:50.484Z,1.80
2023-04-14T13:02:18.668Z,1.60
2023-04-14T13:04:46.146Z,1.45
2023-04-14T13:07:13.679Z,1.40
2023-04-14T13:09:43.777Z,1.63
2023-04-14T13:12:11.359Z,1.60
2023-04-14T13:14:39.219Z,1.70
2023-04-14T13:17:07.773Z,1.40
2023-04-14T13:19:35.133Z,1.45
2023-04-14T13:22:02.309Z,1.60
2023-04-14T13:24:29.784Z,1.40
2023-04-14T13:26:57.661Z,1.23
2023-04-14T13:29:25.535Z,1.40
2023-04-14T13:31:53.181Z,1.55
2023-04-14T13:34:20.990Z,1.25
2023-04-14T13:36:48.572Z,1.38
2023-04-14T13:39:16.065Z,1.15
2023-04-14T13:41:43.794Z,1.48
2023-04-14T13:44:10.997Z,1.48
2023-04-14T13:46:41.438Z,1.67
2023-04-14T13:49:12.207Z,1.30
2023-04-14T13:51:40.001Z,1.40
2023-04-14T13:54:07.248Z,1.67
2023-04-14T13:56:34.541Z,1.20
2023-04-14T13:59:02.240Z,1.45
2023-04-14T14:01:30.128Z,1.30
2023-04-14T14:03:58.345Z,1.50
2023-04-14T14:06:33.958Z,1.40
2023-04-14T14:09:06.073Z,1.70
2023-04-14T14:11:35.406Z,2.72
2023-04-14T14:14:02.972Z,1.40
2023-04-14T14:16:36.826Z,1.50
2023-04-14T14:19:08.155Z,1.40
2023-04-14T14:21:36.127Z,1.42
2023-04-14T14:24:04.230Z,1.38
2023-04-14T14:26:32.074Z,2.60
2023-04-14T14:29:00.273Z,1.48
2023-04-14T14:31:27.722Z,1.55
2023-04-14T14:33:55.241Z,1.60
2023-04-14T14:36:23.250Z,1.50
2023-04-14T14:38:51.314Z,1.30
2023-04-14T14:41:18.938Z,1.60
2023-04-14T14:43:48.120Z,1.30
2023-04-14T14:46:15.776Z,1.10
2023-04-14T14:48:43.435Z,1.33
2023-04-14T14:51:10.741Z,1.10
2023-04-14T14:53:38.011Z,1.23
2023-04-14T14:56:06.066Z,1.08
2023-04-14T14:58:33.610Z,1.13
2023-04-14T15:01:01.390Z,1.10
2023-04-14T15:03:29.088Z,1.15
2023-04-14T15:05:56.763Z,1.30
2023-04-14T15:08:24.248Z,1.00
2023-04-14T15:10:52.263Z,1.30
2023-04-14T15:13:21.076Z,1.10
2023-04-14T15:15:48.290Z,1.33
2023-04-14T15:18:16.170Z,1.30
2023-04-14T15:20:43.894Z,1.00
2023-04-14T15:23:11.561Z,1.48
2023-04-14T15:25:40.023Z,1.25
2023-04-14T15:28:08.406Z,1.30
2023-04-14T15:30:36.362Z,1.30
2023-04-14T15:33:04.745Z,1.00
2023-04-14T15:35:42.226Z,1.10
2023-04-14T15:38:09.647Z,1.20
2023-04-14T15:40:40.215Z,1.20
2023-04-14T15:43:07.894Z,1.27
2023-04-14T15:45:35.777Z,1.30
2023-04-14T15:48:03.375Z,1.30
2023-04-14T15:50:32.165Z,1.33
2023-04-14T15:52:59.834Z,1.00
2023-04-14T15:55:27.945Z,1.40
2023-04-14T15:57:55.174Z,1.10
2023-04-14T16:00:22.654Z,1.58
2023-04-14T16:02:50.299Z,1.05
2023-04-14T16:05:18.332Z,1.00
2023-04-14T16:07:45.769Z,1.08
2023-04-14T16:10:13.337Z,1.10
2023-04-14T16:12:40.820Z,1.80
2023-04-14T16:15:09.002Z,1.70
2023-04-14T16:17:36.778Z,1.40
2023-04-14T16:20:05.931Z,1.10
2023-04-14T16:22:34.235Z,1.13
2023-04-14T16:25:02.347Z,1.17
2023-04-14T16:27:34.845Z,1.20
2023-04-14T16:30:03.357Z,1.17
2023-04-14T16:32:30.549Z,1.42
2023-04-14T16:34:58.082Z,1.50
2023-04-14T16:37:26.378Z,1.20
2023-04-14T16:39:56.159Z,1.20
2023-04-14T16:42:24.976Z,1.20
2023-04-14T16:44:53.852Z,1.48
2023-04-14T16:47:22.696Z,1.70
2023-04-14T16:49:51.644Z,1.20
2023-04-14T16:52:20.401Z,1.45
2023-04-14T16:54:47.636Z,1.10
2023-04-14T16:57:15.434Z,1.30
2023-04-14T16:59:42.899Z,1.20
2023-04-14T17:02:10.304Z,1.40
2023-04-14T17:04:37.737Z,1.35
2023-04-14T17:07:05.184Z,1.17
2023-04-14T17:09:32.577Z,1.40
2023-04-14T17:12:00.510Z,1.10
2023-04-14T17:14:27.665Z,1.38
2023-04-14T17:16:55.346Z,1.00
2023-04-14T17:19:22.860Z,1.23
2023-04-14T17:21:50.185Z,1.05
2023-04-14T17:24:17.829Z,1.40
2023-04-14T17:26:45.834Z,1.30
2023-04-14T17:29:13.008Z,1.40
2023-04-14T17:31:42.179Z,1.20
2023-04-14T17:34:12.603Z,1.08
2023-04-14T17:36:40.189Z,1.30
2023-04-14T17:39:08.397Z,1.05
2023-04-14T17:41:37.208Z,1.00
2023-04-14T17:44:04.907Z,0.90
2023-04-14T17:46:35.275Z,1.20
2023-04-14T17:49:03.767Z,1.40
2023-04-14T17:51:32.134Z,1.30
2023-04-14T17:53:59.680Z,1.52
2023-04-14T17:56:27.923Z,0.95
2023-04-14T17:58:56.270Z,1.02
2023-04-14T18:01:26.128Z,1.42
2023-04-14T18:03:53.773Z,1.10
2023-04-14T18:06:21.157Z,1.08
2023-04-14T18:08:48.535Z,1.40
2023-04-14T18:11:15.931Z,1.33
2023-04-14T18:13:43.124Z,0.90
2023-04-14T18:16:10.696Z,1.73
2023-04-14T18:18:38.426Z,1.52
2023-04-14T18:21:05.984Z,1.33
2023-04-14T18:23:33.347Z,1.42
2023-04-14T18:28:33.252Z,1.52
2023-04-14T18:31:01.189Z,1.58
2023-04-14T18:33:29.552Z,1.75
2023-04-14T18:36:00.271Z,1.70
2023-04-14T18:38:28.663Z,2.28
2023-04-14T18:41:04.889Z,2.38
2023-04-14T18:43:33.162Z,1.92
2023-04-14T18:46:00.727Z,1.70
2023-04-14T18:48:28.694Z,1.92
2023-04-14T18:51:04.144Z,2.25
2023-04-14T18:53:31.989Z,1.75
2023-04-14T18:55:59.289Z,2.20
2023-04-14T18:58:26.727Z,1.90
2023-04-14T19:00:59.354Z,2.42
2023-04-14T19:03:27.286Z,1.92
2023-04-14T19:05:55.513Z,2.05
2023-04-14T19:08:22.918Z,2.08
2023-04-14T19:10:51.061Z,2.20
2023-04-14T19:13:18.734Z,2.10
2023-04-14T19:15:46.319Z,1.80
2023-04-14T19:18:14.991Z,2.55
2023-04-14T19:20:43.004Z,2.80
2023-04-14T19:23:11.940Z,2.30
2023-04-14T19:25:41.904Z,3.47
2023-04-14T19:28:16.722Z,3.13
2023-04-14T19:30:45.820Z,3.63
2023-04-14T19:33:13.534Z,3.50
2023-04-14T19:35:44.189Z,2.60
2023-04-14T19:38:12.640Z,2.50
2023-04-14T19:40:49.764Z,2.97
2023-04-14T19:43:18.627Z,3.47
2023-04-14T19:45:54.559Z,4.30
2023-04-14T19:48:24.316Z,3.85
2023-04-14T19:50:55.425Z,3.22
2023-04-14T19:53:24.405Z,3.67
2023-04-14T19:55:53.676Z,3.15
2023-04-14T19:58:21.871Z,2.85
2023-04-14T20:01:14.875Z,2.90
2023-04-14T20:04:05.371Z,2.88
2023-04-14T20:06:29.657Z,3.17
2023-04-14T20:08:56.961Z,3.60
2023-04-14T20:11:27.809Z,3.25
2023-04-14T20:13:55.066Z,2.67
2023-04-14T20:16:23.741Z,2.75
2023-04-14T20:18:51.718Z,3.15
2023-04-14T20:21:19.196Z,2.67
2023-04-14T20:23:47.010Z,2.50
2023-04-14T20:26:15.322Z,3.15
2023-04-14T20:28:42.801Z,2.90
2023-04-14T20:31:10.329Z,2.95
2023-04-14T20:33:37.840Z,3.50
2023-04-14T20:36:07.002Z,3.13
2023-04-14T20:38:34.551Z,3.22
2023-04-14T20:41:02.019Z,3.15
2023-04-14T20:43:34.071Z,3.25
2023-04-14T20:46:03.812Z,3.20
2023-04-14T20:48:32.200Z,4.22
2023-04-14T20:51:01.311Z,3.53
2023-04-14T20:53:29.922Z,3.05
2023-04-14T20:55:57.315Z,3.50
2023-04-14T20:58:24.782Z,3.47
2023-04-14T21:01:17.779Z,3.95
2023-04-14T21:03:45.547Z,4.40
2023-04-14T21:06:13.122Z,5.88
2023-04-14T21:08:40.482Z,4.95
2023-04-14T21:11:16.658Z,4.68
2023-04-14T21:15:24.894Z,4.35
2023-04-14T21:16:34.987Z,3.70
2023-04-14T21:19:03.839Z,3.90
2023-04-14T21:21:31.888Z,4.35
2023-04-14T21:23:59.757Z,3.55
2023-04-14T21:26:28.468Z,3.85
2023-04-14T21:28:56.494Z,4.07
2023-04-14T21:31:23.701Z,3.42
2023-04-14T21:33:51.085Z,3.78
2023-04-14T21:36:19.832Z,3.40
2023-04-14T21:38:47.270Z,3.65
2023-04-14T21:41:14.456Z,3.50
2023-04-14T21:43:41.877Z,4.15
2023-04-14T21:46:10.086Z,3.70
2023-04-14T21:48:37.941Z,3.80
2023-04-14T21:51:05.430Z,3.70
2023-04-14T21:53:32.819Z,4.10
2023-04-14T21:56:10.286Z,3.80
2023-04-14T21:58:39.565Z,3.88
2023-04-14T22:01:10.327Z,4.05
2023-04-14T22:03:41.882Z,4.35
2023-04-14T22:06:12.199Z,3.53
2023-04-14T22:08:41.128Z,3.28
2023-04-14T22:11:08.525Z,4.90
2023-04-14T22:13:35.997Z,4.72
2023-04-14T22:16:03.745Z,4.75
2023-04-14T22:18:31.881Z,3.67
2023-04-14T22:20:59.104Z,4.35
2023-04-14T22:23:26.364Z,3.97
2023-04-14T22:25:53.554Z,3.80
2023-04-14T22:28:20.789Z,3.25
2023-04-14T22:30:48.114Z,3.72
2023-04-14T22:33:15.224Z,3.88
2023-04-14T22:35:42.754Z,4.38
2023-04-14T22:38:10.028Z,3.78
2023-04-14T22:40:37.292Z,3.60
2023-04-14T22:43:08.624Z,3.65
2023-04-14T22:45:41.467Z,3.58
2023-04-14T22:48:10.780Z,3.28
2023-04-14T22:50:39.151Z,3.60
2023-04-14T22:53:06.944Z,3.90
2023-04-14T22:55:34.225Z,4.43
2023-04-14T22:58:01.419Z,4.32
2023-04-14T23:00:29.752Z,4.20
2023-04-14T23:02:59.364Z,4.30
2023-04-14T23:05:27.188Z,4.10
2023-04-14T23:07:54.561Z,4.22
2023-04-14T23:10:21.718Z,4.15
2023-04-14T23:12:48.911Z,3.28
2023-04-14T23:15:16.148Z,3.83
2023-04-14T23:17:44.700Z,3.63
2023-04-14T23:20:12.926Z,3.47
2023-04-14T23:22:40.663Z,3.53
2023-04-14T23:25:09.197Z,3.60
2023-04-14T23:27:36.959Z,3.47
2023-04-14T23:30:05.405Z,3.08
2023-04-14T23:32:33.199Z,3.67
2023-04-14T23:35:00.717Z,3.15
2023-04-14T23:37:28.206Z,3.17
2023-04-14T23:39:55.622Z,3.25
2023-04-14T23:42:22.735Z,3.33
2023-04-14T23:44:49.831Z,3.55
2023-04-14T23:47:17.359Z,2.70
2023-04-14T23:49:44.512Z,3.13
2023-04-14T23:52:11.931Z,3.00
2023-04-14T23:54:39.104Z,3.20
2023-04-14T23:57:06.681Z,3.10
2023-04-14T23:59:33.888Z,3.40
